Ana Sayfa
METAR-TAF:

METAR-TAF

Havaalanları :

Bedford, Pensilvanya, Amerika Birleşik Devletleri

Enlem: 40-05-10N, Boylam: 078-30-49W, yükseklik: 354 m

Güncel hava durumu gözlemi

Rapor saat 16:15 UTC de 32 dakika önce yapıldı.
Rüzgar kuzeybatıdan 20 kt ve 31 kt'a kadar ani rüzgarlar
Sıcaklık 10°C
Nem 37%
Basınç 1014 hPa
Görüş mesafesi: 16.1 km
Açık gökyüzü

METAR: KHMZ 021615Z AUTO 31020G31KT 10SM CLR 10/M04 A2993 RMK AO2 T01011040

Saat: 12:47 (16:47 UTC)


TAF: eksik

4.000'den fazla havaalanı için hava durumu gözlemleri ve tahminleri (METAR ve TAF raporları).

Kullanılabilir istasyonlar harita üzerinde sarı ve kırmızı noktalarla gösterilir.

İstasyonun adını görmek için fareyi noktanın üzerinde gezdirin.

Sonrasında hava gözlem ve tahminlerini görmek için tıklayın.

Haritayı değiştirmek için: yaklaştırmak için siyah artı işaretli yeşil düğmeye ve uzaklaştırmak için de eksi işaretli düğmeye hızla tıklayın; bitişik haritalar için yeşil okları kullanın.


METAR-TAF: